Time;durP1;ratioP1;P1;durP2;ratioP2;P2;SDS_P1;SDS_P2;PMS_P1;PMS_P2;Temp;Humidity;BMP_temperature;BMP_pressure;BME280_temperature;BME280_humidity;BME280_pressure;Samples;Min_cycle;Max_cycle;Signal;HPM_P1;HPM_P2
2022/05/18 00:00:29;;;;;;;4.10;3.38;;;19.60;99.90;;;;;;2080652;28;20049;-72
2022/05/18 00:01:29;;;;;;;5.90;3.47;;;19.60;99.90;;;;;;2080528;28;20056;-72
2022/05/18 00:02:30;;;;;;;4.22;3.08;;;19.60;99.90;;;;;;2083966;28;20063;-71
2022/05/18 00:03:35;;;;;;;5.30;3.97;;;19.60;99.90;;;;;;2080150;28;20021;-71
2022/05/18 00:04:36;;;;;;;6.43;3.47;;;19.50;99.90;;;;;;2082699;28;20385;-71
2022/05/18 00:05:39;;;;;;;6.55;4.10;;;19.50;99.90;;;;;;2079348;28;20025;-71
2022/05/18 00:06:40;;;;;;;3.65;3.03;;;19.50;99.90;;;;;;2083360;28;20560;-71
2022/05/18 00:07:40;;;;;;;6.50;3.85;;;19.50;99.90;;;;;;2082452;28;20400;-71
2022/05/18 00:08:41;;;;;;;4.55;3.17;;;19.50;99.90;;;;;;2080633;28;20024;-71
2022/05/18 00:09:42;;;;;;;4.20;3.50;;;19.50;99.90;;;;;;2084836;28;20029;-71
2022/05/18 00:10:44;;;;;;;4.18;3.35;;;19.50;99.90;;;;;;2082418;28;20055;-71
2022/05/18 00:11:45;;;;;;;6.90;3.40;;;19.60;99.90;;;;;;2084573;28;20036;-71
2022/05/18 00:12:47;;;;;;;7.22;3.63;;;19.50;99.90;;;;;;2083586;28;20021;-71
2022/05/18 00:13:51;;;;;;;4.47;3.78;;;19.50;99.90;;;;;;2079981;28;20045;-71
2022/05/18 00:14:52;;;;;;;6.32;3.70;;;19.40;99.90;;;;;;2081527;28;20432;-71
2022/05/18 00:15:52;;;;;;;5.00;3.78;;;19.40;99.90;;;;;;2083361;28;20076;-71
2022/05/18 00:16:53;;;;;;;5.43;3.42;;;19.30;99.90;;;;;;2081303;28;20068;-71
2022/05/18 00:17:54;;;;;;;8.55;3.80;;;19.30;99.90;;;;;;2080479;28;20014;-71
2022/05/18 00:18:55;;;;;;;6.20;3.58;;;19.30;99.90;;;;;;2084160;28;20048;-71
2022/05/18 00:19:55;;;;;;;3.88;3.58;;;19.30;99.90;;;;;;2080449;28;20025;-71
2022/05/18 00:20:56;;;;;;;5.50;3.70;;;19.30;99.90;;;;;;2080885;28;20053;-72
2022/05/18 00:21:57;;;;;;;4.03;3.42;;;19.30;99.90;;;;;;2081902;28;20400;-72
2022/05/18 00:23:01;;;;;;;5.82;3.60;;;19.30;99.90;;;;;;2082662;28;20109;-71
2022/05/18 00:24:01;;;;;;;5.55;3.08;;;19.20;99.90;;;;;;2083468;28;20032;-72
2022/05/18 00:25:02;;;;;;;4.45;3.78;;;19.20;99.90;;;;;;2083876;28;20048;-71
2022/05/18 00:26:04;;;;;;;10.40;3.78;;;19.20;99.90;;;;;;2079849;28;20032;-71
2022/05/18 00:27:05;;;;;;;6.45;3.20;;;19.20;99.90;;;;;;2081545;28;20021;-71
2022/05/18 00:28:06;;;;;;;5.95;3.35;;;19.20;99.90;;;;;;2084878;28;20031;-71
2022/05/18 00:29:07;;;;;;;3.88;3.13;;;19.20;99.90;;;;;;2080550;28;20509;-71
2022/05/18 00:30:09;;;;;;;5.78;3.30;;;19.20;99.90;;;;;;2080477;28;20432;-71
2022/05/18 00:31:13;;;;;;;6.07;3.33;;;19.10;99.90;;;;;;2080572;28;20545;-71
2022/05/18 00:32:13;;;;;;;8.38;3.88;;;19.10;99.90;;;;;;2081489;28;20037;-71
2022/05/18 00:33:14;;;;;;;3.95;3.38;;;19.10;99.90;;;;;;2080921;28;20481;-72
2022/05/18 00:34:18;;;;;;;5.13;3.50;;;19.10;99.90;;;;;;2080299;28;20049;-72
2022/05/18 00:35:20;;;;;;;6.50;3.83;;;19.10;99.90;;;;;;2080095;28;20022;-72
2022/05/18 00:36:21;;;;;;;5.25;3.47;;;19.10;99.90;;;;;;2081053;28;20021;-72
2022/05/18 00:37:21;;;;;;;4.50;3.20;;;19.00;99.90;;;;;;2084848;28;20092;-72
2022/05/18 00:38:22;;;;;;;4.55;3.13;;;19.00;99.90;;;;;;2083693;28;20021;-71
2022/05/18 00:39:22;;;;;;;5.05;3.83;;;19.00;99.90;;;;;;2080029;28;20021;-71
2022/05/18 00:40:23;;;;;;;5.47;3.65;;;19.00;99.90;;;;;;2080303;28;20025;-71
2022/05/18 00:41:24;;;;;;;4.38;3.17;;;19.00;99.90;;;;;;2085547;28;20036;-71
2022/05/18 00:42:26;;;;;;;3.88;3.00;;;18.90;99.90;;;;;;2083522;28;20021;-71
2022/05/18 00:43:29;;;;;;;5.20;3.33;;;18.90;99.90;;;;;;2083359;28;20035;-71
2022/05/18 00:44:30;;;;;;;4.35;3.10;;;18.90;99.90;;;;;;2079846;28;20044;-71
2022/05/18 00:45:31;;;;;;;4.15;3.40;;;18.90;99.90;;;;;;2079574;28;20060;-71
2022/05/18 00:46:32;;;;;;;5.72;3.88;;;18.80;99.90;;;;;;2080170;28;20034;-71
2022/05/18 00:47:34;;;;;;;5.50;3.22;;;18.90;99.90;;;;;;2081076;28;20064;-71
2022/05/18 00:48:35;;;;;;;7.90;4.20;;;18.90;99.90;;;;;;2083036;28;20030;-72
2022/05/18 00:49:36;;;;;;;3.80;3.40;;;18.80;99.90;;;;;;2082655;28;20071;-72
2022/05/18 00:50:38;;;;;;;6.13;3.63;;;18.80;99.90;;;;;;2083924;28;20075;-71
2022/05/18 00:51:46;;;;;;;6.80;3.78;;;18.80;99.90;;;;;;2084324;28;20022;-71
2022/05/18 00:53:00;;;;;;;4.20;2.97;;;18.80;99.90;;;;;;2083919;28;20057;-71
2022/05/18 00:54:09;;;;;;;5.22;3.10;;;18.70;99.90;;;;;;2081236;28;20519;-71
2022/05/18 00:55:13;;;;;;;5.32;3.80;;;18.70;99.90;;;;;;2079379;28;20048;-71
2022/05/18 00:56:19;;;;;;;7.75;3.90;;;18.70;99.90;;;;;;2081909;28;20409;-71
2022/05/18 00:57:29;;;;;;;8.75;4.53;;;18.70;99.90;;;;;;2081195;28;20040;-71
2022/05/18 00:58:49;;;;;;;7.15;3.33;;;18.70;99.90;;;;;;2081145;28;20018;-71
2022/05/18 00:59:56;;;;;;;4.53;3.38;;;18.60;99.90;;;;;;2084891;28;20024;-71
2022/05/18 01:00:58;;;;;;;5.20;3.30;;;18.60;99.90;;;;;;2078529;28;20021;-71
2022/05/18 01:02:01;;;;;;;5.50;3.25;;;18.50;99.90;;;;;;2084927;28;20017;-71
2022/05/18 01:03:09;;;;;;;7.18;3.90;;;18.50;99.90;;;;;;2081530;28;20032;-71
2022/05/18 01:04:11;;;;;;;6.57;3.65;;;18.50;99.90;;;;;;2083188;28;20403;-71
2022/05/18 01:05:17;;;;;;;4.28;3.40;;;18.50;99.90;;;;;;2079210;28;20424;-71
2022/05/18 01:06:39;;;;;;;7.72;3.55;;;18.50;99.90;;;;;;2079574;28;20056;-71
2022/05/18 01:07:44;;;;;;;3.20;2.88;;;18.50;99.90;;;;;;2079980;28;20029;-72
2022/05/18 01:08:50;;;;;;;6.35;3.67;;;18.40;99.90;;;;;;2081837;28;20473;-72
2022/05/18 01:09:51;;;;;;;3.40;2.97;;;18.40;99.90;;;;;;2079712;28;20029;-72
2022/05/18 01:10:51;;;;;;;6.32;3.58;;;18.40;99.90;;;;;;2080527;28;20074;-72
2022/05/18 01:11:52;;;;;;;3.50;3.20;;;18.40;99.90;;;;;;2080691;28;20071;-72
2022/05/18 01:12:52;;;;;;;7.70;3.22;;;18.40;99.90;;;;;;2079902;28;20072;-72
2022/05/18 01:13:53;;;;;;;4.22;2.90;;;18.40;99.90;;;;;;2082645;28;20041;-72
2022/05/18 01:14:59;;;;;;;4.55;3.10;;;18.40;99.90;;;;;;2080525;28;20500;-72
2022/05/18 01:15:59;;;;;;;4.28;2.83;;;18.40;99.90;;;;;;2079681;28;20022;-72
2022/05/18 01:17:00;;;;;;;5.68;3.03;;;18.40;99.90;;;;;;2081194;28;20033;-72
2022/05/18 01:18:01;;;;;;;6.78;3.13;;;18.40;99.90;;;;;;2081671;28;20127;-72
2022/05/18 01:19:03;;;;;;;5.63;2.88;;;18.40;99.90;;;;;;2081286;28;20140;-72
2022/05/18 01:20:14;;;;;;;3.95;2.65;;;18.40;99.90;;;;;;2081546;28;20052;-72
2022/05/18 01:21:14;;;;;;;6.35;3.30;;;18.40;99.90;;;;;;2087809;28;20029;-72
2022/05/18 01:22:17;;;;;;;4.13;2.97;;;18.40;99.90;;;;;;2091372;28;20077;-72
2022/05/18 01:23:54;;;;;;;5.93;2.92;;;18.50;99.90;;;;;;2086688;28;20029;-72
2022/05/18 01:25:16;;;;;;;6.72;2.55;;;18.40;99.90;;;;;;2082060;28;20076;-72
2022/05/18 01:26:32;;;;;;;5.32;3.08;;;18.40;99.90;;;;;;2079632;28;20021;-72
2022/05/18 01:27:33;;;;;;;4.85;2.28;;;18.40;99.90;;;;;;2080853;28;20024;-72
2022/05/18 01:28:39;;;;;;;8.57;3.00;;;18.40;99.90;;;;;;2081138;28;20040;-72
2022/05/18 01:29:40;;;;;;;7.15;2.75;;;18.40;99.90;;;;;;2081676;28;20018;-72
2022/05/18 01:30:45;;;;;;;2.65;2.33;;;18.40;99.90;;;;;;2080969;28;20528;-72
2022/05/18 01:31:52;;;;;;;4.93;2.33;;;18.40;99.90;;;;;;2080981;28;20024;-72
2022/05/18 01:32:55;;;;;;;3.00;2.65;;;18.50;99.90;;;;;;2082279;28;20027;-72
2022/05/18 01:34:00;;;;;;;4.78;2.63;;;18.50;99.90;;;;;;2079037;28;20032;-72
2022/05/18 01:35:01;;;;;;;7.47;3.33;;;18.50;99.90;;;;;;2081345;28;20029;-72
2022/05/18 01:36:03;;;;;;;4.68;2.63;;;18.50;99.90;;;;;;2079256;28;20025;-72
2022/05/18 01:37:03;;;;;;;3.78;2.30;;;18.50;99.90;;;;;;2075480;28;20037;-72
2022/05/18 01:38:06;;;;;;;4.38;2.70;;;18.50;99.90;;;;;;2081679;28;20025;-72
2022/05/18 01:39:10;;;;;;;5.95;2.78;;;18.50;99.90;;;;;;2079959;28;20013;-72
2022/05/18 01:40:19;;;;;;;5.10;2.42;;;18.50;99.90;;;;;;2079643;28;20032;-72
2022/05/18 01:41:21;;;;;;;5.15;3.20;;;18.50;99.90;;;;;;2081021;28;20045;-72
2022/05/18 01:42:42;;;;;;;6.05;2.35;;;18.50;99.90;;;;;;2081356;28;20025;-72
2022/05/18 01:43:47;;;;;;;5.32;2.80;;;18.50;99.90;;;;;;2079902;28;20436;-72
2022/05/18 01:44:47;;;;;;;4.25;2.60;;;18.50;99.90;;;;;;2082846;28;20057;-72
2022/05/18 01:45:53;;;;;;;5.15;2.70;;;18.50;99.90;;;;;;2080810;28;20079;-72
2022/05/18 01:46:53;;;;;;;7.95;3.28;;;18.50;99.90;;;;;;2079645;28;20102;-73
2022/05/18 01:47:54;;;;;;;6.18;3.00;;;18.50;99.90;;;;;;2080621;28;20029;-72
2022/05/18 01:48:55;;;;;;;4.82;2.60;;;18.50;99.90;;;;;;2080343;28;20100;-72
2022/05/18 01:49:55;;;;;;;3.47;2.63;;;18.50;99.90;;;;;;2080216;28;20047;-72
2022/05/18 01:50:58;;;;;;;5.22;2.33;;;18.50;99.90;;;;;;2079713;28;20108;-72
2022/05/18 01:51:58;;;;;;;3.63;2.70;;;18.60;99.90;;;;;;2079876;28;20061;-72
2022/05/18 01:52:59;;;;;;;4.88;2.38;;;18.50;99.90;;;;;;2080879;28;20041;-72
2022/05/18 01:54:00;;;;;;;14.75;2.88;;;18.60;99.90;;;;;;2083688;28;20037;-72
2022/05/18 01:55:01;;;;;;;5.05;2.40;;;18.50;99.90;;;;;;2080972;28;20529;-72
2022/05/18 01:56:02;;;;;;;3.70;2.50;;;18.60;99.90;;;;;;2079766;28;20054;-72
2022/05/18 01:57:03;;;;;;;2.50;2.30;;;18.60;99.90;;;;;;2079893;28;20025;-72
2022/05/18 01:58:05;;;;;;;2.92;2.67;;;18.60;99.90;;;;;;2080590;28;20499;-72
2022/05/18 01:59:06;;;;;;;6.35;2.75;;;18.60;99.90;;;;;;2079146;28;20485;-72
2022/05/18 02:00:07;;;;;;;3.78;2.58;;;18.60;99.90;;;;;;2081028;28;20449;-72
2022/05/18 02:01:08;;;;;;;3.33;2.30;;;18.60;99.90;;;;;;2082437;28;20026;-72
2022/05/18 02:02:12;;;;;;;4.38;2.42;;;18.60;99.90;;;;;;2081326;28;20022;-72
2022/05/18 02:03:14;;;;;;;3.13;2.30;;;18.60;99.90;;;;;;2079081;28;20020;-72
2022/05/18 02:04:15;;;;;;;5.20;3.00;;;18.60;99.90;;;;;;2081618;28;20021;-72
2022/05/18 02:05:15;;;;;;;2.58;2.33;;;18.60;99.90;;;;;;2079386;28;20504;-72
2022/05/18 02:06:17;;;;;;;8.15;3.13;;;18.60;99.90;;;;;;2080107;28;20026;-72
2022/05/18 02:07:17;;;;;;;4.65;2.60;;;18.60;99.90;;;;;;2082007;28;20029;-72
2022/05/18 02:08:19;;;;;;;5.45;2.80;;;18.60;99.90;;;;;;2079866;28;20033;-72
2022/05/18 02:09:20;;;;;;;6.35;2.70;;;18.60;99.90;;;;;;2082828;28;20033;-72
2022/05/18 02:10:21;;;;;;;6.82;2.75;;;18.60;99.90;;;;;;2080439;28;20112;-72
2022/05/18 02:11:22;;;;;;;3.67;2.80;;;18.60;99.90;;;;;;2081449;28;20026;-72
2022/05/18 02:12:22;;;;;;;4.60;2.60;;;18.60;99.90;;;;;;2081908;28;20018;-72
2022/05/18 02:13:23;;;;;;;3.30;2.25;;;18.60;99.90;;;;;;2082827;28;20068;-72
2022/05/18 02:14:24;;;;;;;3.45;2.22;;;18.60;99.90;;;;;;2081590;28;20041;-72
2022/05/18 02:15:25;;;;;;;4.10;2.20;;;18.70;99.90;;;;;;2082308;28;20138;-72
2022/05/18 02:16:26;;;;;;;4.63;2.40;;;18.60;99.90;;;;;;2081042;28;20013;-72
2022/05/18 02:17:26;;;;;;;4.38;2.38;;;18.70;99.90;;;;;;2081449;28;20113;-72
2022/05/18 02:18:27;;;;;;;4.10;2.58;;;18.60;99.90;;;;;;2083020;28;20021;-72
2022/05/18 02:19:27;;;;;;;3.60;2.60;;;18.60;99.90;;;;;;2081646;28;20036;-72
2022/05/18 02:20:28;;;;;;;3.35;2.45;;;18.70;99.90;;;;;;2081722;28;20026;-72
2022/05/18 02:21:29;;;;;;;4.15;2.65;;;18.60;99.90;;;;;;2082312;28;20026;-72
2022/05/18 02:22:29;;;;;;;5.53;2.80;;;18.60;99.90;;;;;;2081959;28;20397;-72
2022/05/18 02:23:30;;;;;;;5.68;2.70;;;18.70;99.90;;;;;;2082347;28;20075;-72
2022/05/18 02:24:31;;;;;;;4.50;2.50;;;18.70;99.90;;;;;;2081293;28;20413;-72
2022/05/18 02:25:32;;;;;;;5.78;2.83;;;18.70;99.90;;;;;;2084771;28;20025;-72
2022/05/18 02:26:33;;;;;;;4.68;2.33;;;18.70;99.90;;;;;;2083124;28;20053;-72
2022/05/18 02:27:33;;;;;;;5.85;2.65;;;18.70;99.90;;;;;;2081403;28;20017;-72
2022/05/18 02:28:34;;;;;;;6.15;2.70;;;18.70;99.90;;;;;;2082555;28;20484;-72
2022/05/18 02:29:35;;;;;;;3.05;2.17;;;18.70;99.90;;;;;;2081441;28;20029;-72
2022/05/18 02:30:36;;;;;;;4.57;2.30;;;18.70;99.90;;;;;;2080695;28;20476;-72
2022/05/18 02:31:37;;;;;;;6.22;2.65;;;18.70;99.90;;;;;;2083120;28;20392;-72
2022/05/18 02:32:37;;;;;;;3.78;2.38;;;18.70;99.90;;;;;;2082082;28;20026;-72
2022/05/18 02:33:38;;;;;;;3.83;2.63;;;18.80;99.90;;;;;;2081769;28;20087;-72
2022/05/18 02:34:39;;;;;;;7.70;2.63;;;18.80;99.90;;;;;;2083236;28;20756;-72
2022/05/18 02:35:41;;;;;;;4.68;2.60;;;18.80;99.90;;;;;;2081927;28;20097;-72
2022/05/18 02:36:44;;;;;;;4.38;2.45;;;18.80;99.90;;;;;;2082259;28;20025;-72
2022/05/18 02:37:45;;;;;;;6.13;2.60;;;18.80;99.90;;;;;;2083827;28;20108;-72
2022/05/18 02:38:45;;;;;;;4.45;2.60;;;18.80;99.90;;;;;;2082199;28;20013;-71
2022/05/18 02:39:46;;;;;;;5.72;2.53;;;18.80;99.90;;;;;;2083293;28;20105;-72
2022/05/18 02:40:46;;;;;;;5.07;2.33;;;18.80;99.90;;;;;;2083844;28;20057;-72
2022/05/18 02:41:48;;;;;;;3.83;2.42;;;18.80;99.90;;;;;;2084833;28;20461;-72
2022/05/18 02:42:49;;;;;;;3.38;2.38;;;18.80;99.90;;;;;;2082836;28;20500;-72
2022/05/18 02:43:51;;;;;;;4.40;2.80;;;18.80;99.90;;;;;;2081488;28;20450;-72
2022/05/18 02:44:52;;;;;;;5.22;2.90;;;18.80;99.90;;;;;;2082661;28;20152;-72
2022/05/18 02:46:03;;;;;;;3.90;2.55;;;18.80;99.90;;;;;;2075016;28;20026;-72
2022/05/18 02:47:04;;;;;;;4.63;2.50;;;18.80;99.90;;;;;;2083798;28;20505;-72
2022/05/18 02:48:05;;;;;;;5.22;2.45;;;18.80;99.90;;;;;;2081866;28;20060;-72
2022/05/18 02:49:06;;;;;;;5.30;2.63;;;18.80;99.90;;;;;;2081673;28;20029;-72
2022/05/18 02:50:08;;;;;;;3.97;2.50;;;18.80;99.90;;;;;;2087648;28;20079;-72
2022/05/18 02:51:10;;;;;;;3.78;2.40;;;18.80;99.90;;;;;;2075957;28;20489;-72
2022/05/18 02:52:10;;;;;;;4.25;2.40;;;18.80;99.90;;;;;;2081016;28;20029;-72
2022/05/18 02:53:11;;;;;;;3.20;2.40;;;18.80;99.90;;;;;;2081505;28;20541;-72
2022/05/18 02:56:50;;;;;;;4.38;2.55;;;18.80;99.90;;;;;;2081488;28;20026;-72
2022/05/18 02:57:50;;;;;;;5.80;2.38;;;18.80;99.90;;;;;;2081303;28;20473;-72
2022/05/18 02:58:53;;;;;;;3.90;2.60;;;18.80;99.90;;;;;;2081760;28;20025;-72
2022/05/18 02:59:53;;;;;;;3.70;2.35;;;18.80;99.90;;;;;;2082820;28;20041;-72
2022/05/18 03:00:54;;;;;;;5.50;2.58;;;18.80;99.90;;;;;;2084598;28;20036;-72
2022/05/18 03:01:55;;;;;;;4.95;2.78;;;18.80;99.90;;;;;;2081160;28;20097;-72
2022/05/18 03:02:55;;;;;;;4.28;2.40;;;18.80;99.90;;;;;;2081460;28;20029;-72
2022/05/18 03:03:56;;;;;;;4.45;2.63;;;18.80;99.90;;;;;;2083815;28;20033;-72
2022/05/18 03:04:57;;;;;;;3.60;2.63;;;18.80;99.90;;;;;;2084960;28;20476;-72
2022/05/18 03:05:57;;;;;;;3.65;2.22;;;18.90;99.90;;;;;;2080642;28;20018;-72
2022/05/18 03:06:59;;;;;;;4.88;2.60;;;18.90;99.90;;;;;;2082046;28;20052;-72
2022/05/18 03:07:59;;;;;;;5.50;2.80;;;18.80;99.90;;;;;;2082644;28;20025;-72
2022/05/18 03:09:00;;;;;;;4.72;2.75;;;18.90;99.90;;;;;;2084338;28;20025;-72
2022/05/18 03:10:00;;;;;;;2.95;2.65;;;18.90;99.90;;;;;;2080802;28;20026;-72
2022/05/18 03:11:01;;;;;;;4.88;2.47;;;18.90;99.90;;;;;;2081704;28;20025;-72
2022/05/18 03:12:03;;;;;;;3.10;2.13;;;18.90;99.90;;;;;;2084006;28;20026;-72
2022/05/18 03:13:03;;;;;;;2.63;2.42;;;18.90;99.90;;;;;;2080215;28;20025;-72
2022/05/18 03:14:04;;;;;;;4.18;2.72;;;18.90;99.90;;;;;;2083317;28;20021;-72
2022/05/18 03:15:05;;;;;;;5.45;2.78;;;18.90;99.90;;;;;;2081126;28;20017;-72
2022/05/18 03:16:06;;;;;;;6.03;2.30;;;18.90;99.90;;;;;;2080618;28;20025;-72
2022/05/18 03:17:07;;;;;;;5.55;2.40;;;18.90;99.90;;;;;;2083215;28;20021;-72
2022/05/18 03:18:08;;;;;;;9.05;2.70;;;18.90;99.90;;;;;;2081093;28;20028;-72
2022/05/18 03:19:08;;;;;;;3.78;2.45;;;18.90;99.90;;;;;;2081526;28;20103;-72
2022/05/18 03:23:33;;;;;;;5.28;2.78;;;18.90;99.90;;;;;;2081771;28;20040;-72
2022/05/18 03:24:10;;;;;;;4.57;2.57;;;18.90;99.90;;;;;;2080365;28;20076;-72
2022/05/18 03:25:11;;;;;;;4.47;2.78;;;18.80;99.90;;;;;;2083381;28;20263;-72
2022/05/18 03:26:20;;;;;;;4.13;2.30;;;18.90;99.90;;;;;;2081147;28;20029;-72
2022/05/18 03:27:21;;;;;;;3.85;2.55;;;18.80;99.90;;;;;;2081366;28;20575;-72
2022/05/18 03:28:21;;;;;;;3.03;2.40;;;18.90;99.90;;;;;;2083117;28;20491;-72
2022/05/18 03:29:22;;;;;;;2.88;2.40;;;18.90;99.90;;;;;;2084261;28;20079;-72
2022/05/18 03:30:22;;;;;;;5.45;2.75;;;18.90;99.90;;;;;;2082225;28;20029;-72
2022/05/18 03:31:24;;;;;;;3.97;1.95;;;18.80;99.90;;;;;;2081787;28;20155;-72
2022/05/18 03:32:25;;;;;;;3.90;2.90;;;18.90;99.90;;;;;;2080227;28;20032;-72
2022/05/18 03:33:25;;;;;;;4.53;2.53;;;18.80;99.90;;;;;;2075966;28;20025;-72
2022/05/18 03:34:26;;;;;;;4.70;2.60;;;18.80;99.90;;;;;;2080502;28;20029;-72
2022/05/18 03:35:27;;;;;;;5.70;2.35;;;18.80;99.90;;;;;;2079840;28;20013;-72
2022/05/18 03:36:28;;;;;;;4.40;2.30;;;18.90;99.90;;;;;;2084496;28;20424;-72
2022/05/18 03:37:28;;;;;;;4.57;3.03;;;18.80;99.90;;;;;;2082508;28;20151;-72
2022/05/18 03:38:29;;;;;;;5.38;2.25;;;18.90;99.90;;;;;;2084835;28;20037;-72
2022/05/18 03:39:30;;;;;;;4.90;2.42;;;18.90;99.90;;;;;;2081858;28;20366;-72
2022/05/18 03:40:36;;;;;;;5.80;2.90;;;18.90;99.90;;;;;;2081042;28;20018;-72
2022/05/18 03:41:37;;;;;;;4.93;2.50;;;18.90;99.90;;;;;;2081832;28;20101;-72
2022/05/18 03:42:38;;;;;;;5.00;2.80;;;18.90;99.90;;;;;;2082022;28;20028;-72
2022/05/18 03:43:38;;;;;;;3.90;2.47;;;18.90;99.90;;;;;;2082831;28;20083;-72
2022/05/18 03:44:39;;;;;;;5.00;2.75;;;18.80;99.90;;;;;;2081152;28;20029;-72
2022/05/18 03:45:40;;;;;;;8.52;2.60;;;18.90;99.90;;;;;;2080114;28;20021;-72
2022/05/18 03:46:40;;;;;;;6.07;2.80;;;18.90;99.90;;;;;;2083228;28;20043;-72
2022/05/18 03:47:42;;;;;;;7.82;2.70;;;18.90;99.90;;;;;;2082471;28;20723;-72
2022/05/18 03:48:43;;;;;;;4.80;3.30;;;18.90;99.90;;;;;;2080895;28;20025;-72
2022/05/18 03:49:44;;;;;;;7.47;2.80;;;18.90;99.90;;;;;;2080678;28;20464;-72
2022/05/18 03:50:47;;;;;;;4.93;2.42;;;18.90;99.90;;;;;;2081747;28;20057;-72
2022/05/18 03:51:49;;;;;;;5.72;2.45;;;18.90;99.90;;;;;;2081946;28;20507;-72
2022/05/18 03:52:50;;;;;;;3.72;2.63;;;18.90;99.90;;;;;;2084478;28;20032;-72
2022/05/18 03:53:51;;;;;;;5.18;2.50;;;18.90;99.90;;;;;;2080214;28;20079;-72
2022/05/18 03:54:52;;;;;;;4.65;2.92;;;18.90;99.90;;;;;;2079930;28;20033;-72
2022/05/18 03:55:53;;;;;;;4.40;2.55;;;18.90;99.90;;;;;;2082126;28;20020;-72
2022/05/18 03:56:53;;;;;;;3.22;2.17;;;18.90;99.90;;;;;;2082443;28;20029;-72
2022/05/18 03:57:54;;;;;;;4.28;2.67;;;18.90;99.90;;;;;;2079650;28;20025;-72
2022/05/18 03:58:54;;;;;;;3.92;2.60;;;18.90;99.90;;;;;;2080697;28;20013;-72
2022/05/18 03:59:55;;;;;;;5.05;2.55;;;18.90;99.90;;;;;;2082011;28;20040;-72
2022/05/18 04:00:56;;;;;;;5.30;2.80;;;19.00;99.90;;;;;;2080417;28;20678;-72
2022/05/18 04:01:57;;;;;;;3.67;2.47;;;19.00;99.90;;;;;;2079904;28;20053;-72
2022/05/18 04:02:58;;;;;;;3.72;2.80;;;19.00;99.90;;;;;;2081830;28;20902;-72
2022/05/18 04:03:59;;;;;;;4.22;2.63;;;19.00;99.90;;;;;;2080958;28;20069;-72
2022/05/18 04:05:00;;;;;;;3.90;2.83;;;19.00;99.90;;;;;;2080634;28;20033;-72
2022/05/18 04:06:00;;;;;;;4.90;2.70;;;19.00;99.90;;;;;;2080973;28;20018;-72
2022/05/18 04:07:01;;;;;;;2.85;2.47;;;19.00;99.90;;;;;;2081316;28;20037;-72
2022/05/18 04:08:01;;;;;;;4.90;2.40;;;19.00;99.90;;;;;;2080398;28;20026;-72
2022/05/18 04:09:02;;;;;;;4.15;2.60;;;19.00;99.90;;;;;;2083134;28;20422;-72
2022/05/18 04:10:06;;;;;;;7.75;2.65;;;19.00;99.90;;;;;;2080863;28;20021;-72
2022/05/18 04:11:07;;;;;;;5.18;2.88;;;19.00;99.90;;;;;;2081067;28;20018;-72
2022/05/18 04:12:08;;;;;;;4.75;2.38;;;19.00;99.90;;;;;;2082149;28;20041;-72
2022/05/18 04:13:18;;;;;;;4.63;2.60;;;19.00;99.90;;;;;;2079697;28;20037;-72
2022/05/18 04:14:19;;;;;;;5.90;2.80;;;19.00;99.90;;;;;;2080462;28;20400;-72
2022/05/18 04:15:19;;;;;;;4.07;2.80;;;19.00;99.90;;;;;;2082892;28;20034;-72
2022/05/18 04:16:20;;;;;;;3.35;2.55;;;19.00;99.90;;;;;;2080559;28;20045;-72
2022/05/18 04:17:27;;;;;;;4.32;2.33;;;19.00;99.90;;;;;;2082377;28;20049;-72
2022/05/18 04:18:28;;;;;;;3.50;2.60;;;19.00;99.90;;;;;;2080616;28;20036;-72
2022/05/18 04:19:29;;;;;;;5.30;2.70;;;19.00;99.90;;;;;;2079860;28;20029;-72
2022/05/18 04:20:30;;;;;;;6.13;2.85;;;19.00;99.90;;;;;;2082045;28;20112;-72
2022/05/18 04:21:31;;;;;;;6.00;2.70;;;19.00;99.90;;;;;;2082859;28;20171;-72
2022/05/18 04:22:32;;;;;;;4.90;2.70;;;19.00;99.90;;;;;;2080943;28;20017;-72
2022/05/18 04:23:33;;;;;;;3.35;2.60;;;19.00;99.90;;;;;;2084469;28;20448;-72
2022/05/18 04:24:33;;;;;;;4.50;2.63;;;19.10;99.90;;;;;;2083132;28;20022;-72
2022/05/18 04:25:36;;;;;;;5.43;2.60;;;19.10;99.90;;;;;;2081085;28;20021;-72
2022/05/18 04:26:37;;;;;;;4.72;2.40;;;19.10;99.90;;;;;;2083934;28;20492;-72
2022/05/18 04:27:37;;;;;;;6.88;2.55;;;19.10;99.90;;;;;;2083072;28;20396;-72
2022/05/18 04:28:38;;;;;;;5.50;2.83;;;19.10;99.90;;;;;;2080696;28;20392;-72
2022/05/18 04:29:39;;;;;;;4.13;2.70;;;19.20;99.90;;;;;;2082442;28;20025;-72
2022/05/18 04:30:42;;;;;;;5.43;2.80;;;19.20;99.90;;;;;;2079928;28;20100;-72
2022/05/18 04:31:43;;;;;;;5.28;2.85;;;19.20;99.90;;;;;;2081961;28;20396;-72
2022/05/18 04:32:46;;;;;;;4.15;2.67;;;19.30;99.90;;;;;;2082330;28;20104;-72
2022/05/18 04:33:47;;;;;;;4.15;2.75;;;19.40;99.90;;;;;;2083600;28;20021;-72
2022/05/18 04:34:48;;;;;;;3.88;2.80;;;19.50;99.90;;;;;;2082369;28;20116;-72
2022/05/18 04:35:50;;;;;;;3.30;2.38;;;19.60;99.90;;;;;;2081096;28;20380;-72
2022/05/18 04:36:51;;;;;;;4.82;2.60;;;19.60;99.90;;;;;;2080897;28;20026;-72
2022/05/18 04:37:52;;;;;;;4.55;2.92;;;19.60;99.90;;;;;;2082100;28;20033;-72
2022/05/18 04:38:52;;;;;;;4.60;2.72;;;19.70;99.90;;;;;;2081867;28;20108;-72
2022/05/18 04:39:53;;;;;;;3.03;2.50;;;19.70;99.90;;;;;;2082916;28;20017;-72
2022/05/18 04:40:53;;;;;;;4.47;2.63;;;19.80;99.90;;;;;;2083334;28;20760;-72
2022/05/18 04:41:54;;;;;;;3.47;2.38;;;19.80;99.90;;;;;;2084400;28;20499;-72
2022/05/18 04:42:56;;;;;;;3.63;2.72;;;19.80;99.90;;;;;;2083251;28;20094;-72
2022/05/18 04:43:56;;;;;;;4.47;2.63;;;19.90;99.90;;;;;;2082751;28;20020;-72
2022/05/18 04:44:57;;;;;;;3.97;2.67;;;19.90;99.90;;;;;;2081719;28;20040;-72
2022/05/18 04:45:58;;;;;;;4.68;2.40;;;20.00;99.90;;;;;;2081282;28;20500;-72
2022/05/18 04:46:58;;;;;;;5.05;2.60;;;20.00;99.90;;;;;;2084004;28;20419;-72
2022/05/18 04:47:59;;;;;;;5.20;2.70;;;20.10;99.90;;;;;;2084579;28;20039;-72
2022/05/18 04:49:00;;;;;;;3.17;2.50;;;20.10;99.90;;;;;;2081597;28;20036;-72
2022/05/18 04:50:00;;;;;;;5.00;2.78;;;20.20;99.90;;;;;;2082268;28;20477;-72
2022/05/18 04:51:05;;;;;;;5.07;2.47;;;20.20;99.90;;;;;;2083761;28;20025;-72
2022/05/18 04:52:07;;;;;;;4.43;2.72;;;20.20;99.90;;;;;;2080839;28;20767;-72
2022/05/18 04:53:08;;;;;;;4.90;2.30;;;20.40;99.90;;;;;;2080430;28;20553;-72
2022/05/18 04:54:09;;;;;;;5.70;2.75;;;20.40;99.90;;;;;;2082112;28;20399;-72
2022/05/18 04:55:10;;;;;;;3.97;2.38;;;20.50;99.90;;;;;;2080075;28;20477;-72
2022/05/18 04:56:10;;;;;;;3.15;2.45;;;20.60;99.90;;;;;;2081007;28;20033;-72
2022/05/18 04:57:11;;;;;;;4.13;2.70;;;20.60;99.90;;;;;;2081330;28;20551;-72
2022/05/18 04:58:12;;;;;;;4.43;2.60;;;20.70;99.90;;;;;;2080224;28;20021;-72
2022/05/18 04:59:13;;;;;;;3.50;2.50;;;20.80;99.90;;;;;;2082495;28;20048;-72
2022/05/18 05:00:14;;;;;;;5.57;2.13;;;20.80;99.90;;;;;;2083872;28;20022;-72
2022/05/18 05:01:15;;;;;;;3.65;2.78;;;20.90;99.90;;;;;;2082186;28;20025;-73
2022/05/18 05:02:16;;;;;;;4.65;3.03;;;21.10;99.90;;;;;;2082657;28;20652;-72
2022/05/18 05:03:17;;;;;;;4.05;2.38;;;21.10;99.90;;;;;;2082721;28;20117;-72
2022/05/18 05:04:18;;;;;;;4.28;2.40;;;21.20;99.90;;;;;;2081590;28;20156;-72
2022/05/18 05:05:18;;;;;;;3.17;2.63;;;21.30;99.90;;;;;;2080205;28;20045;-72
2022/05/18 05:06:19;;;;;;;4.63;2.38;;;21.40;99.90;;;;;;2080713;28;20561;-72
2022/05/18 05:07:19;;;;;;;3.90;2.65;;;21.40;99.90;;;;;;2081749;28;20362;-73
2022/05/18 05:08:20;;;;;;;3.83;2.33;;;21.50;99.90;;;;;;2080445;28;20056;-72
2022/05/18 05:09:24;;;;;;;7.25;2.88;;;21.60;99.90;;;;;;2082527;28;20048;-72
2022/05/18 05:10:25;;;;;;;5.97;2.45;;;21.70;99.90;;;;;;2082395;28;20060;-72
2022/05/18 05:11:25;;;;;;;5.75;2.40;;;21.80;99.90;;;;;;2083013;28;20782;-72
2022/05/18 05:12:26;;;;;;;5.93;2.33;;;21.80;99.90;;;;;;2083339;28;20564;-72
2022/05/18 05:13:27;;;;;;;3.95;2.55;;;22.00;99.90;;;;;;2081989;28;20032;-72
2022/05/18 05:14:27;;;;;;;3.85;2.47;;;22.00;99.90;;;;;;2083264;28;20021;-72
2022/05/18 05:15:28;;;;;;;3.88;2.45;;;22.10;99.90;;;;;;2079832;28;20119;-72
2022/05/18 05:16:29;;;;;;;4.28;2.40;;;22.20;99.90;;;;;;2081896;28;20017;-72
2022/05/18 05:17:30;;;;;;;4.68;2.42;;;22.30;99.90;;;;;;2081023;28;20029;-72
2022/05/18 05:18:32;;;;;;;2.80;2.35;;;22.30;99.90;;;;;;2080907;28;20025;-72
2022/05/18 05:19:35;;;;;;;3.17;2.65;;;22.40;99.90;;;;;;2079820;28;20113;-72
2022/05/18 05:20:35;;;;;;;5.07;2.67;;;22.50;99.90;;;;;;2081178;28;20021;-72
2022/05/18 05:21:36;;;;;;;5.07;2.80;;;22.50;99.90;;;;;;2081434;28;20477;-72
2022/05/18 05:22:36;;;;;;;2.60;2.22;;;22.60;99.90;;;;;;2080796;28;20436;-72
2022/05/18 05:23:37;;;;;;;5.32;2.20;;;22.70;99.90;;;;;;2081176;28;20033;-72
2022/05/18 05:24:37;;;;;;;4.32;2.40;;;22.70;99.90;;;;;;2081533;28;20029;-72
2022/05/18 05:25:38;;;;;;;3.40;2.33;;;22.90;99.90;;;;;;2082662;28;20041;-72
2022/05/18 05:26:39;;;;;;;3.85;2.70;;;22.90;99.90;;;;;;2081039;28;20037;-72
2022/05/18 05:27:41;;;;;;;4.22;2.47;;;23.00;99.90;;;;;;2079611;28;20036;-72
2022/05/18 05:28:42;;;;;;;4.90;2.28;;;23.10;99.90;;;;;;2079947;28;20382;-72